sensor_id;sensor_type;location;lat;lon;timestamp;temperature;humidity
64997;SHT31;51545;51.568;6.998;2023-04-24T00:01:26;11.25;82.91
64997;SHT31;51545;51.568;6.998;2023-04-24T00:03:54;11.16;83.81
64997;SHT31;51545;51.568;6.998;2023-04-24T00:06:21;11.22;83.11
64997;SHT31;51545;51.568;6.998;2023-04-24T00:08:48;11.19;83.38
64997;SHT31;51545;51.568;6.998;2023-04-24T00:11:14;11.15;82.83
64997;SHT31;51545;51.568;6.998;2023-04-24T00:13:39;11.16;82.66
64997;SHT31;51545;51.568;6.998;2023-04-24T00:16:05;11.12;82.97
64997;SHT31;51545;51.568;6.998;2023-04-24T00:18:30;11.19;83.16
64997;SHT31;51545;51.568;6.998;2023-04-24T00:20:56;11.15;83.51
64997;SHT31;51545;51.568;6.998;2023-04-24T00:23:21;11.16;83.56
64997;SHT31;51545;51.568;6.998;2023-04-24T00:25:47;11.19;83.50
64997;SHT31;51545;51.568;6.998;2023-04-24T00:28:12;11.18;83.80
64997;SHT31;51545;51.568;6.998;2023-04-24T00:30:37;11.21;83.53
64997;SHT31;51545;51.568;6.998;2023-04-24T00:33:03;11.21;83.74
64997;SHT31;51545;51.568;6.998;2023-04-24T00:35:28;11.18;83.67
64997;SHT31;51545;51.568;6.998;2023-04-24T00:37:54;11.21;83.78
64997;SHT31;51545;51.568;6.998;2023-04-24T00:40:19;11.18;83.92
64997;SHT31;51545;51.568;6.998;2023-04-24T00:42:45;11.12;83.88
64997;SHT31;51545;51.568;6.998;2023-04-24T00:45:10;11.14;83.84
64997;SHT31;51545;51.568;6.998;2023-04-24T00:47:36;11.10;83.96
64997;SHT31;51545;51.568;6.998;2023-04-24T00:50:03;11.14;84.02
64997;SHT31;51545;51.568;6.998;2023-04-24T00:52:30;11.12;83.45
64997;SHT31;51545;51.568;6.998;2023-04-24T00:54:56;11.07;83.60
64997;SHT31;51545;51.568;6.998;2023-04-24T00:57:22;11.08;83.81
64997;SHT31;51545;51.568;6.998;2023-04-24T00:59:48;11.07;84.21
64997;SHT31;51545;51.568;6.998;2023-04-24T01:02:14;11.04;84.26
64997;SHT31;51545;51.568;6.998;2023-04-24T01:04:40;10.93;84.38
64997;SHT31;51545;51.568;6.998;2023-04-24T01:07:06;10.91;83.63
64997;SHT31;51545;51.568;6.998;2023-04-24T01:09:36;10.83;83.59
64997;SHT31;51545;51.568;6.998;2023-04-24T01:12:03;10.80;83.44
64997;SHT31;51545;51.568;6.998;2023-04-24T01:14:28;10.77;83.55
64997;SHT31;51545;51.568;6.998;2023-04-24T01:16:55;10.70;83.97
64997;SHT31;51545;51.568;6.998;2023-04-24T01:19:22;10.66;83.69
64997;SHT31;51545;51.568;6.998;2023-04-24T01:21:48;10.63;84.30
64997;SHT31;51545;51.568;6.998;2023-04-24T01:24:16;10.57;84.33
64997;SHT31;51545;51.568;6.998;2023-04-24T01:26:44;10.50;84.33
64997;SHT31;51545;51.568;6.998;2023-04-24T01:29:10;10.39;84.49
64997;SHT31;51545;51.568;6.998;2023-04-24T01:31:36;10.29;84.93
64997;SHT31;51545;51.568;6.998;2023-04-24T01:34:02;10.21;85.16
64997;SHT31;51545;51.568;6.998;2023-04-24T01:36:28;10.24;85.01
64997;SHT31;51545;51.568;6.998;2023-04-24T01:38:56;10.14;85.26
64997;SHT31;51545;51.568;6.998;2023-04-24T01:41:21;10.01;85.62
64997;SHT31;51545;51.568;6.998;2023-04-24T01:43:47;10.03;85.56
64997;SHT31;51545;51.568;6.998;2023-04-24T01:46:13;9.97;86.02
64997;SHT31;51545;51.568;6.998;2023-04-24T01:48:39;9.95;86.06
64997;SHT31;51545;51.568;6.998;2023-04-24T01:51:06;9.86;86.09
64997;SHT31;51545;51.568;6.998;2023-04-24T01:53:31;9.89;86.37
64997;SHT31;51545;51.568;6.998;2023-04-24T01:55:57;9.86;86.24
64997;SHT31;51545;51.568;6.998;2023-04-24T01:58:23;9.93;85.99
64997;SHT31;51545;51.568;6.998;2023-04-24T02:00:48;9.90;86.20
64997;SHT31;51545;51.568;6.998;2023-04-24T02:03:13;9.90;86.24
64997;SHT31;51545;51.568;6.998;2023-04-24T02:05:39;9.94;86.50
64997;SHT31;51545;51.568;6.998;2023-04-24T02:08:04;9.91;86.68
64997;SHT31;51545;51.568;6.998;2023-04-24T02:10:30;9.94;86.42
64997;SHT31;51545;51.568;6.998;2023-04-24T02:12:55;9.93;86.62
64997;SHT31;51545;51.568;6.998;2023-04-24T02:15:21;9.89;87.04
64997;SHT31;51545;51.568;6.998;2023-04-24T02:17:46;9.93;86.68
64997;SHT31;51545;51.568;6.998;2023-04-24T02:20:12;9.93;86.75
64997;SHT31;51545;51.568;6.998;2023-04-24T02:22:38;9.90;86.79
64997;SHT31;51545;51.568;6.998;2023-04-24T02:25:05;9.83;86.84
64997;SHT31;51545;51.568;6.998;2023-04-24T02:27:31;9.83;86.79
64997;SHT31;51545;51.568;6.998;2023-04-24T02:29:56;9.80;87.28
64997;SHT31;51545;51.568;6.998;2023-04-24T02:32:22;9.79;87.08
64997;SHT31;51545;51.568;6.998;2023-04-24T02:34:47;9.79;87.30
64997;SHT31;51545;51.568;6.998;2023-04-24T02:37:12;9.77;87.29
64997;SHT31;51545;51.568;6.998;2023-04-24T02:39:38;9.74;87.66
64997;SHT31;51545;51.568;6.998;2023-04-24T02:42:03;9.73;87.33
64997;SHT31;51545;51.568;6.998;2023-04-24T02:44:29;9.76;87.19
64997;SHT31;51545;51.568;6.998;2023-04-24T02:46:55;9.71;87.56
64997;SHT31;51545;51.568;6.998;2023-04-24T02:49:20;9.77;87.61
64997;SHT31;51545;51.568;6.998;2023-04-24T02:51:46;9.71;87.64
64997;SHT31;51545;51.568;6.998;2023-04-24T02:54:11;9.77;87.78
64997;SHT31;51545;51.568;6.998;2023-04-24T02:56:37;9.71;87.82
64997;SHT31;51545;51.568;6.998;2023-04-24T02:59:02;9.73;87.62
64997;SHT31;51545;51.568;6.998;2023-04-24T03:01:28;9.71;87.65
64997;SHT31;51545;51.568;6.998;2023-04-24T03:03:53;9.67;87.44
64997;SHT31;51545;51.568;6.998;2023-04-24T03:06:18;9.70;87.51
64997;SHT31;51545;51.568;6.998;2023-04-24T03:08:46;9.69;87.60
64997;SHT31;51545;51.568;6.998;2023-04-24T03:11:12;9.69;87.80
64997;SHT31;51545;51.568;6.998;2023-04-24T03:13:37;9.60;88.11
64997;SHT31;51545;51.568;6.998;2023-04-24T03:16:02;9.66;87.66
64997;SHT31;51545;51.568;6.998;2023-04-24T03:18:28;9.69;87.64
64997;SHT31;51545;51.568;6.998;2023-04-24T03:20:53;9.69;87.73
64997;SHT31;51545;51.568;6.998;2023-04-24T03:23:19;9.66;87.90
64997;SHT31;51545;51.568;6.998;2023-04-24T03:25:44;9.69;87.93
64997;SHT31;51545;51.568;6.998;2023-04-24T03:28:10;9.66;87.95
64997;SHT31;51545;51.568;6.998;2023-04-24T03:30:35;9.66;87.83
64997;SHT31;51545;51.568;6.998;2023-04-24T03:33:01;9.65;88.02
64997;SHT31;51545;51.568;6.998;2023-04-24T03:35:26;9.65;88.12
64997;SHT31;51545;51.568;6.998;2023-04-24T03:37:52;9.65;88.30
64997;SHT31;51545;51.568;6.998;2023-04-24T03:40:17;9.60;88.14
64997;SHT31;51545;51.568;6.998;2023-04-24T03:42:43;9.65;88.01
64997;SHT31;51545;51.568;6.998;2023-04-24T03:45:08;9.67;88.06
64997;SHT31;51545;51.568;6.998;2023-04-24T03:47:34;9.71;88.13
64997;SHT31;51545;51.568;6.998;2023-04-24T03:50:00;9.60;88.30
64997;SHT31;51545;51.568;6.998;2023-04-24T03:52:25;9.65;88.15
64997;SHT31;51545;51.568;6.998;2023-04-24T03:54:51;9.65;87.81
64997;SHT31;51545;51.568;6.998;2023-04-24T03:57:16;9.63;87.89
64997;SHT31;51545;51.568;6.998;2023-04-24T03:59:41;9.63;88.07
64997;SHT31;51545;51.568;6.998;2023-04-24T04:02:07;9.67;88.31
64997;SHT31;51545;51.568;6.998;2023-04-24T04:04:32;9.66;88.17
64997;SHT31;51545;51.568;6.998;2023-04-24T04:06:58;9.65;87.95
64997;SHT31;51545;51.568;6.998;2023-04-24T04:09:26;9.65;87.68
64997;SHT31;51545;51.568;6.998;2023-04-24T04:11:52;9.65;87.91
64997;SHT31;51545;51.568;6.998;2023-04-24T04:14:17;9.63;87.79
64997;SHT31;51545;51.568;6.998;2023-04-24T04:16:43;9.65;87.99
64997;SHT31;51545;51.568;6.998;2023-04-24T04:19:08;9.69;87.64
64997;SHT31;51545;51.568;6.998;2023-04-24T04:21:34;9.69;87.51
64997;SHT31;51545;51.568;6.998;2023-04-24T04:24:00;9.69;87.41
64997;SHT31;51545;51.568;6.998;2023-04-24T04:26:25;9.70;87.59
64997;SHT31;51545;51.568;6.998;2023-04-24T04:28:51;9.70;87.37
64997;SHT31;51545;51.568;6.998;2023-04-24T04:31:17;9.69;87.68
64997;SHT31;51545;51.568;6.998;2023-04-24T04:33:43;9.69;87.57
64997;SHT31;51545;51.568;6.998;2023-04-24T04:36:09;9.73;87.53
64997;SHT31;51545;51.568;6.998;2023-04-24T04:38:34;9.71;87.44
64997;SHT31;51545;51.568;6.998;2023-04-24T04:41:00;9.71;87.53
64997;SHT31;51545;51.568;6.998;2023-04-24T04:43:25;9.73;87.15
64997;SHT31;51545;51.568;6.998;2023-04-24T04:45:54;9.74;86.92
64997;SHT31;51545;51.568;6.998;2023-04-24T04:48:21;9.74;86.97
64997;SHT31;51545;51.568;6.998;2023-04-24T04:50:47;9.74;86.98
64997;SHT31;51545;51.568;6.998;2023-04-24T04:53:12;9.71;87.09
64997;SHT31;51545;51.568;6.998;2023-04-24T04:55:38;9.74;86.95
64997;SHT31;51545;51.568;6.998;2023-04-24T04:58:03;9.73;86.72
64997;SHT31;51545;51.568;6.998;2023-04-24T05:00:29;9.76;86.76
64997;SHT31;51545;51.568;6.998;2023-04-24T05:03:00;9.76;87.01
64997;SHT31;51545;51.568;6.998;2023-04-24T05:05:25;9.70;86.55
64997;SHT31;51545;51.568;6.998;2023-04-24T05:07:51;9.66;86.65
64997;SHT31;51545;51.568;6.998;2023-04-24T05:10:16;9.70;86.74
64997;SHT31;51545;51.568;6.998;2023-04-24T05:12:42;9.70;86.74
64997;SHT31;51545;51.568;6.998;2023-04-24T05:15:07;9.69;86.59
64997;SHT31;51545;51.568;6.998;2023-04-24T05:17:33;9.71;86.35
64997;SHT31;51545;51.568;6.998;2023-04-24T05:19:59;9.73;86.67
64997;SHT31;51545;51.568;6.998;2023-04-24T05:22:25;9.77;86.57
64997;SHT31;51545;51.568;6.998;2023-04-24T05:24:51;9.71;86.19
64997;SHT31;51545;51.568;6.998;2023-04-24T05:27:16;9.67;86.50
64997;SHT31;51545;51.568;6.998;2023-04-24T05:29:42;9.65;86.37
64997;SHT31;51545;51.568;6.998;2023-04-24T05:32:08;9.63;86.65
64997;SHT31;51545;51.568;6.998;2023-04-24T05:34:33;9.55;87.20
64997;SHT31;51545;51.568;6.998;2023-04-24T05:36:59;9.49;87.18
64997;SHT31;51545;51.568;6.998;2023-04-24T05:39:25;9.50;87.66
64997;SHT31;51545;51.568;6.998;2023-04-24T05:41:51;9.35;89.02
64997;SHT31;51545;51.568;6.998;2023-04-24T05:44:16;9.14;90.86
64997;SHT31;51545;51.568;6.998;2023-04-24T05:46:42;9.03;91.91
64997;SHT31;51545;51.568;6.998;2023-04-24T05:49:07;8.90;92.10
64997;SHT31;51545;51.568;6.998;2023-04-24T05:51:33;8.93;92.08
64997;SHT31;51545;51.568;6.998;2023-04-24T05:53:58;8.96;92.31
64997;SHT31;51545;51.568;6.998;2023-04-24T05:56:24;8.93;92.34
64997;SHT31;51545;51.568;6.998;2023-04-24T05:58:49;8.93;91.91
64997;SHT31;51545;51.568;6.998;2023-04-24T06:01:15;8.90;91.83
64997;SHT31;51545;51.568;6.998;2023-04-24T06:03:41;8.94;91.97
64997;SHT31;51545;51.568;6.998;2023-04-24T06:06:07;9.01;91.98
64997;SHT31;51545;51.568;6.998;2023-04-24T06:08:33;9.04;92.28
64997;SHT31;51545;51.568;6.998;2023-04-24T06:10:59;8.94;91.92
64997;SHT31;51545;51.568;6.998;2023-04-24T06:13:24;9.05;92.05
64997;SHT31;51545;51.568;6.998;2023-04-24T06:15:50;9.03;91.65
64997;SHT31;51545;51.568;6.998;2023-04-24T06:18:16;9.08;91.63
64997;SHT31;51545;51.568;6.998;2023-04-24T06:20:41;9.15;91.77
64997;SHT31;51545;51.568;6.998;2023-04-24T06:23:07;9.18;91.73
64997;SHT31;51545;51.568;6.998;2023-04-24T06:25:33;9.25;92.02
64997;SHT31;51545;51.568;6.998;2023-04-24T06:27:58;9.22;92.61
64997;SHT31;51545;51.568;6.998;2023-04-24T06:30:24;9.10;93.67
64997;SHT31;51545;51.568;6.998;2023-04-24T06:32:50;9.05;94.76
64997;SHT31;51545;51.568;6.998;2023-04-24T06:35:15;8.80;94.66
64997;SHT31;51545;51.568;6.998;2023-04-24T06:37:42;8.84;95.15
64997;SHT31;51545;51.568;6.998;2023-04-24T06:40:08;8.74;95.39
64997;SHT31;51545;51.568;6.998;2023-04-24T06:42:34;8.93;95.80
64997;SHT31;51545;51.568;6.998;2023-04-24T06:45:00;8.94;96.01
64997;SHT31;51545;51.568;6.998;2023-04-24T06:47:26;8.87;95.68
64997;SHT31;51545;51.568;6.998;2023-04-24T06:49:52;8.80;95.90
64997;SHT31;51545;51.568;6.998;2023-04-24T06:52:18;9.12;96.03
64997;SHT31;51545;51.568;6.998;2023-04-24T06:54:44;9.22;95.37
64997;SHT31;51545;51.568;6.998;2023-04-24T06:57:10;9.20;94.68
64997;SHT31;51545;51.568;6.998;2023-04-24T06:59:36;9.17;94.53
64997;SHT31;51545;51.568;6.998;2023-04-24T07:02:01;9.21;94.22
64997;SHT31;51545;51.568;6.998;2023-04-24T07:04:28;9.05;94.12
64997;SHT31;51545;51.568;6.998;2023-04-24T07:06:54;9.01;94.34
64997;SHT31;51545;51.568;6.998;2023-04-24T07:09:21;9.05;94.70
64997;SHT31;51545;51.568;6.998;2023-04-24T07:11:48;9.01;94.96
64997;SHT31;51545;51.568;6.998;2023-04-24T07:14:14;8.87;95.46
64997;SHT31;51545;51.568;6.998;2023-04-24T07:16:40;8.89;95.37
64997;SHT31;51545;51.568;6.998;2023-04-24T07:19:05;8.81;95.32
64997;SHT31;51545;51.568;6.998;2023-04-24T07:21:31;8.87;95.80
64997;SHT31;51545;51.568;6.998;2023-04-24T07:23:57;8.94;95.38
64997;SHT31;51545;51.568;6.998;2023-04-24T07:26:23;8.99;95.03
64997;SHT31;51545;51.568;6.998;2023-04-24T07:28:49;8.81;95.26
64997;SHT31;51545;51.568;6.998;2023-04-24T07:31:14;8.89;95.03
64997;SHT31;51545;51.568;6.998;2023-04-24T07:33:40;8.86;95.12
64997;SHT31;51545;51.568;6.998;2023-04-24T07:36:05;8.79;95.07
64997;SHT31;51545;51.568;6.998;2023-04-24T07:38:31;8.87;95.41
64997;SHT31;51545;51.568;6.998;2023-04-24T07:40:57;8.84;94.25
64997;SHT31;51545;51.568;6.998;2023-04-24T07:43:22;8.97;93.24
64997;SHT31;51545;51.568;6.998;2023-04-24T07:45:49;9.10;93.17
64997;SHT31;51545;51.568;6.998;2023-04-24T07:48:15;9.11;91.84
64997;SHT31;51545;51.568;6.998;2023-04-24T07:50:41;9.03;91.31
64997;SHT31;51545;51.568;6.998;2023-04-24T07:53:07;8.93;90.99
64997;SHT31;51545;51.568;6.998;2023-04-24T07:55:32;8.86;91.26
64997;SHT31;51545;51.568;6.998;2023-04-24T07:57:58;8.74;91.09
64997;SHT31;51545;51.568;6.998;2023-04-24T08:00:23;8.87;92.05
64997;SHT31;51545;51.568;6.998;2023-04-24T08:02:49;8.79;91.99
64997;SHT31;51545;51.568;6.998;2023-04-24T08:05:14;8.77;92.23
64997;SHT31;51545;51.568;6.998;2023-04-24T08:07:40;8.67;92.99
64997;SHT31;51545;51.568;6.998;2023-04-24T08:10:08;8.50;93.08
64997;SHT31;51545;51.568;6.998;2023-04-24T08:12:35;8.42;93.58
64997;SHT31;51545;51.568;6.998;2023-04-24T08:15:02;8.48;94.18
64997;SHT31;51545;51.568;6.998;2023-04-24T08:17:27;8.41;94.60
64997;SHT31;51545;51.568;6.998;2023-04-24T08:19:53;8.37;94.82
64997;SHT31;51545;51.568;6.998;2023-04-24T08:22:24;8.37;95.30
64997;SHT31;51545;51.568;6.998;2023-04-24T08:24:49;8.38;95.81
64997;SHT31;51545;51.568;6.998;2023-04-24T08:27:15;8.37;95.96
64997;SHT31;51545;51.568;6.998;2023-04-24T08:29:41;8.22;96.45
64997;SHT31;51545;51.568;6.998;2023-04-24T08:32:06;8.22;96.62
64997;SHT31;51545;51.568;6.998;2023-04-24T08:34:32;8.25;96.95
64997;SHT31;51545;51.568;6.998;2023-04-24T08:36:57;8.21;97.23
64997;SHT31;51545;51.568;6.998;2023-04-24T08:39:23;8.31;97.88
64997;SHT31;51545;51.568;6.998;2023-04-24T08:41:48;8.38;97.84
64997;SHT31;51545;51.568;6.998;2023-04-24T08:44:15;8.38;98.14
64997;SHT31;51545;51.568;6.998;2023-04-24T08:46:42;8.46;98.03
64997;SHT31;51545;51.568;6.998;2023-04-24T08:49:13;8.45;98.14
64997;SHT31;51545;51.568;6.998;2023-04-24T08:51:41;8.31;98.62
64997;SHT31;51545;51.568;6.998;2023-04-24T08:54:07;8.34;99.05
64997;SHT31;51545;51.568;6.998;2023-04-24T08:56:33;8.48;99.18
64997;SHT31;51545;51.568;6.998;2023-04-24T08:58:59;8.49;99.17
64997;SHT31;51545;51.568;6.998;2023-04-24T09:01:24;8.60;98.88
64997;SHT31;51545;51.568;6.998;2023-04-24T09:03:50;8.74;98.23
64997;SHT31;51545;51.568;6.998;2023-04-24T09:06:18;8.84;97.81
64997;SHT31;51545;51.568;6.998;2023-04-24T09:08:45;8.83;97.04
64997;SHT31;51545;51.568;6.998;2023-04-24T09:11:12;8.90;97.25
64997;SHT31;51545;51.568;6.998;2023-04-24T09:13:37;9.00;97.77
64997;SHT31;51545;51.568;6.998;2023-04-24T09:16:03;8.99;97.76
64997;SHT31;51545;51.568;6.998;2023-04-24T09:18:29;9.07;98.09
64997;SHT31;51545;51.568;6.998;2023-04-24T09:21:02;9.01;98.19
64997;SHT31;51545;51.568;6.998;2023-04-24T09:23:29;9.11;98.36
64997;SHT31;51545;51.568;6.998;2023-04-24T09:25:56;9.07;97.96
64997;SHT31;51545;51.568;6.998;2023-04-24T09:28:31;9.07;98.17
64997;SHT31;51545;51.568;6.998;2023-04-24T09:33:30;8.89;98.36
64997;SHT31;51545;51.568;6.998;2023-04-24T09:35:56;8.89;97.95
64997;SHT31;51545;51.568;6.998;2023-04-24T09:38:37;8.90;97.90
64997;SHT31;51545;51.568;6.998;2023-04-24T09:41:04;8.84;97.61
64997;SHT31;51545;51.568;6.998;2023-04-24T09:43:31;8.86;96.82
64997;SHT31;51545;51.568;6.998;2023-04-24T09:45:58;8.93;97.36
64997;SHT31;51545;51.568;6.998;2023-04-24T09:48:32;8.87;97.35
64997;SHT31;51545;51.568;6.998;2023-04-24T09:50:59;8.67;97.22
64997;SHT31;51545;51.568;6.998;2023-04-24T09:53:31;8.65;97.51
64997;SHT31;51545;51.568;6.998;2023-04-24T09:56:09;8.62;97.72
64997;SHT31;51545;51.568;6.998;2023-04-24T09:58:37;8.49;97.44
64997;SHT31;51545;51.568;6.998;2023-04-24T10:01:03;8.53;97.44
64997;SHT31;51545;51.568;6.998;2023-04-24T10:03:31;8.59;97.79
64997;SHT31;51545;51.568;6.998;2023-04-24T10:05:59;8.59;97.51
64997;SHT31;51545;51.568;6.998;2023-04-24T10:08:25;8.60;97.08
64997;SHT31;51545;51.568;6.998;2023-04-24T10:10:51;8.66;96.83
64997;SHT31;51545;51.568;6.998;2023-04-24T10:13:17;8.73;96.98
64997;SHT31;51545;51.568;6.998;2023-04-24T10:15:43;8.69;96.43
64997;SHT31;51545;51.568;6.998;2023-04-24T10:18:10;8.72;97.32
64997;SHT31;51545;51.568;6.998;2023-04-24T10:20:37;8.65;97.56
64997;SHT31;51545;51.568;6.998;2023-04-24T10:23:04;8.76;97.67
64997;SHT31;51545;51.568;6.998;2023-04-24T10:25:31;8.84;97.81
64997;SHT31;51545;51.568;6.998;2023-04-24T10:27:59;8.79;97.53
64997;SHT31;51545;51.568;6.998;2023-04-24T10:30:27;8.80;98.00
64997;SHT31;51545;51.568;6.998;2023-04-24T10:32:59;8.65;97.63
64997;SHT31;51545;51.568;6.998;2023-04-24T10:35:26;8.83;98.10
64997;SHT31;51545;51.568;6.998;2023-04-24T10:37:59;8.79;97.23
64997;SHT31;51545;51.568;6.998;2023-04-24T10:40:31;8.80;97.19
64997;SHT31;51545;51.568;6.998;2023-04-24T10:43:04;8.80;97.16
64997;SHT31;51545;51.568;6.998;2023-04-24T10:45:33;8.80;97.41
64997;SHT31;51545;51.568;6.998;2023-04-24T10:48:04;8.56;97.68
64997;SHT31;51545;51.568;6.998;2023-04-24T10:50:45;8.45;98.02
64997;SHT31;51545;51.568;6.998;2023-04-24T10:53:14;8.49;98.15
64997;SHT31;51545;51.568;6.998;2023-04-24T10:56:05;8.49;98.19
64997;SHT31;51545;51.568;6.998;2023-04-24T10:58:36;8.46;98.30
64997;SHT31;51545;51.568;6.998;2023-04-24T11:01:05;8.55;98.49
64997;SHT31;51545;51.568;6.998;2023-04-24T11:03:32;8.55;97.91
64997;SHT31;51545;51.568;6.998;2023-04-24T11:06:08;8.53;98.17
64997;SHT31;51545;51.568;6.998;2023-04-24T11:08:44;8.55;97.76
64997;SHT31;51545;51.568;6.998;2023-04-24T11:11:14;8.57;97.44
64997;SHT31;51545;51.568;6.998;2023-04-24T11:16:35;9.10;96.28
64997;SHT31;51545;51.568;6.998;2023-04-24T11:21:31;9.89;96.01
64997;SHT31;51545;51.568;6.998;2023-04-24T11:32:17;10.14;90.25
64997;SHT31;51545;51.568;6.998;2023-04-24T11:34:53;10.24;90.71
64997;SHT31;51545;51.568;6.998;2023-04-24T11:37:21;10.03;91.07
64997;SHT31;51545;51.568;6.998;2023-04-24T11:39:55;10.08;90.98
64997;SHT31;51545;51.568;6.998;2023-04-24T11:42:22;10.20;90.42
64997;SHT31;51545;51.568;6.998;2023-04-24T11:44:49;10.05;88.74
64997;SHT31;51545;51.568;6.998;2023-04-24T11:47:15;10.08;89.29
64997;SHT31;51545;51.568;6.998;2023-04-24T11:49:41;9.89;89.15
64997;SHT31;51545;51.568;6.998;2023-04-24T11:52:06;9.71;88.80
64997;SHT31;51545;51.568;6.998;2023-04-24T11:54:32;9.76;87.74
64997;SHT31;51545;51.568;6.998;2023-04-24T11:56:57;9.95;86.74
64997;SHT31;51545;51.568;6.998;2023-04-24T11:59:23;10.05;86.85
64997;SHT31;51545;51.568;6.998;2023-04-24T12:01:48;10.07;86.92
64997;SHT31;51545;51.568;6.998;2023-04-24T12:04:15;10.04;85.17
64997;SHT31;51545;51.568;6.998;2023-04-24T12:07:00;10.29;85.84
64997;SHT31;51545;51.568;6.998;2023-04-24T12:09:46;10.26;85.25
64997;SHT31;51545;51.568;6.998;2023-04-24T12:12:13;10.55;84.91
64997;SHT31;51545;51.568;6.998;2023-04-24T12:14:49;10.55;85.09
64997;SHT31;51545;51.568;6.998;2023-04-24T12:17:17;9.97;83.65
64997;SHT31;51545;51.568;6.998;2023-04-24T12:19:51;9.89;85.00
64997;SHT31;51545;51.568;6.998;2023-04-24T12:22:18;9.87;84.91
64997;SHT31;51545;51.568;6.998;2023-04-24T12:25:17;9.74;84.25
64997;SHT31;51545;51.568;6.998;2023-04-24T12:27:36;9.53;84.98
64997;SHT31;51545;51.568;6.998;2023-04-24T12:30:03;9.57;86.05
64997;SHT31;51545;51.568;6.998;2023-04-24T12:32:30;9.52;86.80
64997;SHT31;51545;51.568;6.998;2023-04-24T12:34:56;9.46;86.00
64997;SHT31;51545;51.568;6.998;2023-04-24T12:37:25;9.43;86.93
64997;SHT31;51545;51.568;6.998;2023-04-24T12:42:32;9.62;86.00
64997;SHT31;51545;51.568;6.998;2023-04-24T12:45:03;9.74;84.13
64997;SHT31;51545;51.568;6.998;2023-04-24T12:47:31;10.35;83.91
64997;SHT31;51545;51.568;6.998;2023-04-24T12:49:57;10.83;83.14
64997;SHT31;51545;51.568;6.998;2023-04-24T12:52:23;10.55;81.71
64997;SHT31;51545;51.568;6.998;2023-04-24T12:54:52;10.57;82.40
64997;SHT31;51545;51.568;6.998;2023-04-24T12:57:20;10.39;81.88
64997;SHT31;51545;51.568;6.998;2023-04-24T12:59:46;9.98;81.95
64997;SHT31;51545;51.568;6.998;2023-04-24T13:02:11;10.04;82.29
64997;SHT31;51545;51.568;6.998;2023-04-24T13:04:37;9.95;83.11
64997;SHT31;51545;51.568;6.998;2023-04-24T13:07:03;9.94;82.01
64997;SHT31;51545;51.568;6.998;2023-04-24T13:09:28;10.03;83.47
64997;SHT31;51545;51.568;6.998;2023-04-24T13:11:55;9.86;81.61
64997;SHT31;51545;51.568;6.998;2023-04-24T13:14:21;9.70;81.75
64997;SHT31;51545;51.568;6.998;2023-04-24T13:16:47;9.69;81.71
64997;SHT31;51545;51.568;6.998;2023-04-24T13:19:13;9.86;81.96
64997;SHT31;51545;51.568;6.998;2023-04-24T13:21:38;9.82;81.73
64997;SHT31;51545;51.568;6.998;2023-04-24T13:24:04;9.80;81.82
64997;SHT31;51545;51.568;6.998;2023-04-24T13:26:30;9.84;81.03
64997;SHT31;51545;51.568;6.998;2023-04-24T13:28:56;9.89;81.46
64997;SHT31;51545;51.568;6.998;2023-04-24T13:31:21;9.82;81.66
64997;SHT31;51545;51.568;6.998;2023-04-24T13:33:47;9.74;80.94
64997;SHT31;51545;51.568;6.998;2023-04-24T13:36:13;9.65;80.68
64997;SHT31;51545;51.568;6.998;2023-04-24T13:38:38;9.82;80.92
64997;SHT31;51545;51.568;6.998;2023-04-24T13:41:04;9.82;80.63
64997;SHT31;51545;51.568;6.998;2023-04-24T13:43:29;9.95;80.75
64997;SHT31;51545;51.568;6.998;2023-04-24T13:45:55;10.14;79.49
64997;SHT31;51545;51.568;6.998;2023-04-24T13:48:20;10.31;79.78
64997;SHT31;51545;51.568;6.998;2023-04-24T13:50:46;10.88;79.09
64997;SHT31;51545;51.568;6.998;2023-04-24T13:53:13;11.25;77.61
64997;SHT31;51545;51.568;6.998;2023-04-24T13:55:39;10.69;77.56
64997;SHT31;51545;51.568;6.998;2023-04-24T13:58:05;10.66;77.51
64997;SHT31;51545;51.568;6.998;2023-04-24T14:00:31;10.76;79.95
64997;SHT31;51545;51.568;6.998;2023-04-24T14:02:57;11.10;78.44
64997;SHT31;51545;51.568;6.998;2023-04-24T14:05:22;11.07;77.25
64997;SHT31;51545;51.568;6.998;2023-04-24T14:07:48;11.03;77.39
64997;SHT31;51545;51.568;6.998;2023-04-24T14:10:13;11.03;78.08
64997;SHT31;51545;51.568;6.998;2023-04-24T14:12:39;10.72;77.82
64997;SHT31;51545;51.568;6.998;2023-04-24T14:15:05;10.36;78.19
64997;SHT31;51545;51.568;6.998;2023-04-24T14:17:31;10.43;79.12
64997;SHT31;51545;51.568;6.998;2023-04-24T14:19:56;10.31;80.09
64997;SHT31;51545;51.568;6.998;2023-04-24T14:22:24;10.03;80.56
64997;SHT31;51545;51.568;6.998;2023-04-24T14:24:50;10.07;82.81
64997;SHT31;51545;51.568;6.998;2023-04-24T14:27:15;9.84;81.79
64997;SHT31;51545;51.568;6.998;2023-04-24T14:29:41;9.73;83.86
64997;SHT31;51545;51.568;6.998;2023-04-24T14:32:06;9.69;84.86
64997;SHT31;51545;51.568;6.998;2023-04-24T14:34:33;9.45;85.01
64997;SHT31;51545;51.568;6.998;2023-04-24T14:36:59;9.34;86.21
64997;SHT31;51545;51.568;6.998;2023-04-24T14:39:25;9.10;88.31
64997;SHT31;51545;51.568;6.998;2023-04-24T14:41:50;9.20;89.22
64997;SHT31;51545;51.568;6.998;2023-04-24T14:44:16;9.24;88.10
64997;SHT31;51545;51.568;6.998;2023-04-24T14:46:41;9.25;88.31
64997;SHT31;51545;51.568;6.998;2023-04-24T14:49:07;9.56;88.79
64997;SHT31;51545;51.568;6.998;2023-04-24T14:51:35;9.65;87.77
64997;SHT31;51545;51.568;6.998;2023-04-24T14:54:01;9.66;88.10
64997;SHT31;51545;51.568;6.998;2023-04-24T14:56:26;9.56;86.90
64997;SHT31;51545;51.568;6.998;2023-04-24T14:58:52;10.00;87.87
64997;SHT31;51545;51.568;6.998;2023-04-24T15:01:17;11.18;83.89
64997;SHT31;51545;51.568;6.998;2023-04-24T15:03:43;11.00;84.43
64997;SHT31;51545;51.568;6.998;2023-04-24T15:06:08;10.88;82.34
64997;SHT31;51545;51.568;6.998;2023-04-24T15:08:34;11.65;80.81
64997;SHT31;51545;51.568;6.998;2023-04-24T15:10:59;11.81;77.67
64997;SHT31;51545;51.568;6.998;2023-04-24T15:13:25;12.21;77.08
64997;SHT31;51545;51.568;6.998;2023-04-24T15:15:50;12.17;76.86
64997;SHT31;51545;51.568;6.998;2023-04-24T15:18:16;11.88;77.09
64997;SHT31;51545;51.568;6.998;2023-04-24T15:20:41;11.43;77.26
64997;SHT31;51545;51.568;6.998;2023-04-24T15:23:10;11.28;78.76
64997;SHT31;51545;51.568;6.998;2023-04-24T15:25:36;10.72;78.34
64997;SHT31;51545;51.568;6.998;2023-04-24T15:28:02;10.91;78.68
64997;SHT31;51545;51.568;6.998;2023-04-24T15:30:27;10.50;79.19
64997;SHT31;51545;51.568;6.998;2023-04-24T15:32:54;10.40;80.02
64997;SHT31;51545;51.568;6.998;2023-04-24T15:35:19;10.39;79.84
64997;SHT31;51545;51.568;6.998;2023-04-24T15:37:45;10.39;80.14
64997;SHT31;51545;51.568;6.998;2023-04-24T15:40:10;10.52;80.00
64997;SHT31;51545;51.568;6.998;2023-04-24T15:42:38;10.57;79.98
64997;SHT31;51545;51.568;6.998;2023-04-24T15:45:05;10.50;79.63
64997;SHT31;51545;51.568;6.998;2023-04-24T15:47:31;10.46;78.91
64997;SHT31;51545;51.568;6.998;2023-04-24T15:49:57;10.56;79.55
64997;SHT31;51545;51.568;6.998;2023-04-24T15:52:23;11.04;78.08
64997;SHT31;51545;51.568;6.998;2023-04-24T15:54:48;10.88;78.70
64997;SHT31;51545;51.568;6.998;2023-04-24T15:57:14;10.77;78.37